createdAt,value
2019-01-09T00:00:50.310Z,27.50
2019-01-09T00:03:22.084Z,36.73
2019-01-09T00:05:52.270Z,18.37
2019-01-09T00:08:22.269Z,27.13
2019-01-09T00:10:53.693Z,27.37
2019-01-09T00:13:24.143Z,17.90
2019-01-09T00:15:54.621Z,20.03
2019-01-09T00:18:24.747Z,16.73
2019-01-09T00:20:54.957Z,16.73
2019-01-09T00:23:25.334Z,17.37
2019-01-09T00:25:55.531Z,23.17
2019-01-09T00:28:25.743Z,38.83
2019-01-09T00:30:55.920Z,19.23
2019-01-09T00:33:26.136Z,17.63
2019-01-09T00:35:56.657Z,30.57
2019-01-09T00:38:29.920Z,23.03
2019-01-09T00:41:00.253Z,19.97
2019-01-09T00:43:30.431Z,20.03
2019-01-09T00:46:00.422Z,18.87
2019-01-09T00:48:30.622Z,17.00
2019-01-09T00:51:00.788Z,15.37
2019-01-09T00:53:30.871Z,16.97
2019-01-09T00:56:01.262Z,19.80
2019-01-09T00:58:31.507Z,16.67
2019-01-09T01:01:01.558Z,26.50
2019-01-09T01:03:37.325Z,21.90
2019-01-09T01:06:34.326Z,17.17
2019-01-09T01:09:19.231Z,28.17
2019-01-09T01:12:18.042Z,21.70
2019-01-09T01:15:16.871Z,22.47
2019-01-09T01:18:08.052Z,18.10
2019-01-09T01:20:41.034Z,17.37
2019-01-09T01:23:36.882Z,22.90
2019-01-09T01:26:21.843Z,28.27
2019-01-09T01:28:57.478Z,24.07
2019-01-09T01:31:59.597Z,16.93
2019-01-09T01:35:01.430Z,30.77
2019-01-09T01:37:35.524Z,21.67
2019-01-09T01:40:17.847Z,18.70
2019-01-09T01:42:56.999Z,25.33
2019-01-09T01:45:35.566Z,20.07
2019-01-09T01:48:43.401Z,27.07
2019-01-09T01:51:22.158Z,23.67
2019-01-09T01:53:57.994Z,18.33
2019-01-09T01:56:36.385Z,20.13
2019-01-09T01:59:27.875Z,21.13
2019-01-09T02:02:09.914Z,18.17
2019-01-09T02:04:54.857Z,24.63
2019-01-09T02:07:40.071Z,20.37
2019-01-09T02:10:30.570Z,17.70
2019-01-09T02:13:15.376Z,23.00
2019-01-09T02:16:08.942Z,29.93
2019-01-09T02:18:44.795Z,21.80
2019-01-09T02:21:20.980Z,18.80
2019-01-09T02:23:56.962Z,19.77
2019-01-09T02:26:30.002Z,18.77
2019-01-09T02:29:30.410Z,17.37
2019-01-09T02:32:15.399Z,18.73
2019-01-09T02:34:45.661Z,20.63
2019-01-09T02:37:15.729Z,21.93
2019-01-09T02:39:45.907Z,17.13
2019-01-09T02:42:15.941Z,20.60
2019-01-09T02:44:45.997Z,48.53
2019-01-09T02:47:16.152Z,18.93
2019-01-09T02:49:46.266Z,20.03
2019-01-09T02:52:16.551Z,35.80
2019-01-09T02:54:46.672Z,24.67
2019-01-09T02:57:16.875Z,21.13
2019-01-09T02:59:46.886Z,19.23
2019-01-09T03:02:16.867Z,21.73
2019-01-09T03:04:47.060Z,23.03
2019-01-09T03:07:19.487Z,18.50
2019-01-09T03:09:50.486Z,25.77
2019-01-09T03:12:20.550Z,18.53
2019-01-09T03:14:50.652Z,22.83
2019-01-09T03:17:20.847Z,24.37
2019-01-09T03:19:50.978Z,19.67
2019-01-09T03:22:20.984Z,22.23
2019-01-09T03:24:51.073Z,17.80
2019-01-09T03:27:23.582Z,56.60
2019-01-09T03:29:53.770Z,24.00
2019-01-09T03:32:23.793Z,51.13
2019-01-09T03:34:53.905Z,17.87
2019-01-09T03:37:23.951Z,17.80
2019-01-09T03:39:55.378Z,37.77
2019-01-09T03:42:25.539Z,18.80
2019-01-09T03:44:55.617Z,17.60
2019-01-09T03:47:25.613Z,17.43
2019-01-09T03:49:56.801Z,17.73
2019-01-09T03:52:26.789Z,20.03
2019-01-09T03:54:56.817Z,17.17
2019-01-09T03:57:26.915Z,17.53
2019-01-09T03:59:57.063Z,17.63
2019-01-09T04:02:27.147Z,18.27
2019-01-09T04:04:57.165Z,19.87
2019-01-09T04:07:27.127Z,18.73
2019-01-09T04:09:57.046Z,20.97
2019-01-09T04:12:27.026Z,19.53
2019-01-09T04:14:57.407Z,20.47
2019-01-09T04:17:27.372Z,40.40
2019-01-09T04:19:57.546Z,26.77
2019-01-09T04:22:27.821Z,19.87
2019-01-09T04:24:57.794Z,18.80
2019-01-09T04:27:27.818Z,20.17
2019-01-09T04:29:57.733Z,19.70
2019-01-09T04:32:27.698Z,55.33
2019-01-09T04:34:57.739Z,19.60
2019-01-09T04:37:27.759Z,17.17
2019-01-09T04:39:57.768Z,22.00
2019-01-09T04:42:29.296Z,21.97
2019-01-09T04:44:59.295Z,21.17
2019-01-09T04:47:29.435Z,21.23
2019-01-09T04:49:59.424Z,19.93
2019-01-09T04:52:29.458Z,20.53
2019-01-09T04:54:59.542Z,100.97
2019-01-09T04:57:29.761Z,21.07
2019-01-09T04:59:59.840Z,46.93
2019-01-09T05:02:29.873Z,22.70
2019-01-09T05:04:59.974Z,22.73
2019-01-09T05:07:29.938Z,31.03
2019-01-09T05:10:00.000Z,27.80
2019-01-09T05:12:30.140Z,27.40
2019-01-09T05:15:00.236Z,23.53
2019-01-09T05:17:30.461Z,29.60
2019-01-09T05:20:00.458Z,26.10
2019-01-09T05:22:30.381Z,29.17
2019-01-09T05:25:00.383Z,26.63
2019-01-09T05:27:30.498Z,28.13
2019-01-09T05:30:00.393Z,26.77
2019-01-09T05:32:30.385Z,28.93
2019-01-09T05:35:00.595Z,39.63
2019-01-09T05:37:30.858Z,34.37
2019-01-09T05:40:00.882Z,27.03
2019-01-09T05:42:31.058Z,27.07
2019-01-09T05:45:01.229Z,30.93
2019-01-09T05:47:31.402Z,23.83
2019-01-09T05:50:01.579Z,42.80
2019-01-09T05:52:31.771Z,26.17
2019-01-09T05:55:01.939Z,37.40
2019-01-09T05:57:32.070Z,25.30
2019-01-09T06:00:02.418Z,36.83
2019-01-09T06:02:32.643Z,35.40
2019-01-09T06:05:02.651Z,24.60
2019-01-09T06:07:32.691Z,37.27
2019-01-09T06:10:03.046Z,25.00
2019-01-09T06:12:33.110Z,24.97
2019-01-09T06:15:03.399Z,30.90
2019-01-09T06:17:33.499Z,26.60
2019-01-09T06:20:03.648Z,25.57
2019-01-09T06:22:33.719Z,27.73
2019-01-09T06:25:04.021Z,34.53
2019-01-09T06:27:35.942Z,35.47
2019-01-09T06:30:07.447Z,29.53
2019-01-09T06:32:37.708Z,46.83
2019-01-09T06:35:07.893Z,46.80
2019-01-09T06:37:38.096Z,34.23
2019-01-09T06:40:09.087Z,27.43
2019-01-09T06:42:40.566Z,51.17
2019-01-09T06:45:12.368Z,37.33
2019-01-09T06:47:44.107Z,46.27
2019-01-09T06:50:17.272Z,36.10
2019-01-09T06:52:47.677Z,39.67
2019-01-09T06:55:17.860Z,47.30
2019-01-09T06:57:48.488Z,43.20
2019-01-09T07:00:19.558Z,30.37
2019-01-09T07:02:50.227Z,33.67
2019-01-09T07:05:20.952Z,34.60
2019-01-09T07:07:51.664Z,28.50
2019-01-09T07:10:22.313Z,53.03
2019-01-09T07:12:52.697Z,51.97
2019-01-09T07:15:23.097Z,31.10
2019-01-09T07:17:53.491Z,38.27
2019-01-09T07:20:23.767Z,26.77
2019-01-09T07:22:55.450Z,41.07
2019-01-09T07:25:25.896Z,24.10
2019-01-09T07:27:56.231Z,44.93
2019-01-09T07:30:26.615Z,29.77
2019-01-09T07:32:56.965Z,22.93
2019-01-09T07:35:27.470Z,28.93
2019-01-09T07:37:57.888Z,39.03
2019-01-09T07:40:28.109Z,21.47
2019-01-09T07:42:58.399Z,32.87
2019-01-09T07:45:28.764Z,23.13
2019-01-09T07:47:58.960Z,31.67
2019-01-09T07:50:29.291Z,29.77
2019-01-09T07:52:59.763Z,26.50
2019-01-09T07:55:30.054Z,24.97
2019-01-09T07:58:00.554Z,31.00
2019-01-09T08:00:31.938Z,33.87
2019-01-09T08:03:02.548Z,31.37
2019-01-09T08:05:33.009Z,45.20
2019-01-09T08:08:03.578Z,27.40
2019-01-09T08:10:33.998Z,22.07
2019-01-09T08:13:04.508Z,26.33
2019-01-09T08:15:42.237Z,36.33
2019-01-09T08:18:12.693Z,25.77
2019-01-09T08:20:43.651Z,27.63
2019-01-09T08:23:14.771Z,37.67
2019-01-09T08:25:45.651Z,42.30
2019-01-09T08:28:16.412Z,39.97
2019-01-09T08:30:46.772Z,44.67
2019-01-09T08:33:17.333Z,34.97
2019-01-09T08:35:47.882Z,44.37
2019-01-09T08:38:18.322Z,49.47
2019-01-09T08:40:48.804Z,37.10
2019-01-09T08:43:19.362Z,55.00
2019-01-09T08:45:50.904Z,47.87
2019-01-09T08:48:21.466Z,53.30
2019-01-09T08:50:51.848Z,33.83
2019-01-09T08:53:22.357Z,43.57
2019-01-09T08:55:52.758Z,27.80
2019-01-09T08:58:23.066Z,24.10
2019-01-09T09:00:53.546Z,34.93
2019-01-09T09:03:24.055Z,23.93
2019-01-09T09:05:54.770Z,24.13
2019-01-09T09:08:26.585Z,26.57
2019-01-09T09:10:57.210Z,26.90
2019-01-09T09:13:36.388Z,52.00
2019-01-09T09:16:08.277Z,33.23
2019-01-09T09:18:38.898Z,29.93
2019-01-09T09:21:09.268Z,35.20
2019-01-09T09:23:39.727Z,29.00
2019-01-09T09:26:10.091Z,29.70
2019-01-09T09:28:40.813Z,30.80
2019-01-09T09:31:11.188Z,35.90
2019-01-09T09:33:41.636Z,29.17
2019-01-09T09:36:12.007Z,28.83
2019-01-09T09:38:42.496Z,39.47
2019-01-09T09:41:12.948Z,32.87
2019-01-09T09:43:43.420Z,76.87
2019-01-09T09:46:15.384Z,41.93
2019-01-09T09:48:48.867Z,35.53
2019-01-09T09:51:19.306Z,34.53
2019-01-09T09:53:49.705Z,41.30
2019-01-09T09:56:20.081Z,73.80
2019-01-09T09:58:50.602Z,43.87
2019-01-09T10:01:20.934Z,47.47
2019-01-09T10:03:51.264Z,32.97
2019-01-09T10:06:21.895Z,64.17
2019-01-09T10:08:52.450Z,49.93
2019-01-09T10:11:22.863Z,60.20
2019-01-09T10:13:53.143Z,31.83
2019-01-09T10:16:23.526Z,31.13
2019-01-09T10:18:54.132Z,26.70
2019-01-09T10:21:24.622Z,41.57
2019-01-09T10:23:55.134Z,26.50
2019-01-09T10:26:25.422Z,27.20
2019-01-09T10:28:56.103Z,68.17
2019-01-09T10:31:26.502Z,41.57
2019-01-09T10:33:56.984Z,65.47
2019-01-09T10:36:30.267Z,44.93
2019-01-09T10:39:00.744Z,40.30
2019-01-09T10:41:32.822Z,32.70
2019-01-09T10:44:03.222Z,46.13
2019-01-09T10:46:33.630Z,28.23
2019-01-09T10:49:04.190Z,35.80
2019-01-09T10:51:34.789Z,31.57
2019-01-09T10:54:05.473Z,26.83
2019-01-09T10:56:41.829Z,43.67
2019-01-09T10:59:12.510Z,54.73
2019-01-09T11:01:42.838Z,29.70
2019-01-09T11:04:13.437Z,44.07
2019-01-09T11:06:43.950Z,28.83
2019-01-09T11:09:14.289Z,24.37
2019-01-09T11:11:44.890Z,22.03
2019-01-09T11:14:15.371Z,28.37
2019-01-09T11:16:47.253Z,23.70
2019-01-09T11:19:17.766Z,23.30
2019-01-09T11:21:48.420Z,31.20
2019-01-09T11:24:20.107Z,26.17
2019-01-09T11:26:50.786Z,22.93
2019-01-09T11:29:21.743Z,24.93
2019-01-09T11:31:52.117Z,24.77
2019-01-09T11:34:23.771Z,26.90
2019-01-09T11:36:54.250Z,36.37
2019-01-09T11:39:25.001Z,28.93
2019-01-09T11:41:55.579Z,26.00
2019-01-09T11:44:25.991Z,24.60
2019-01-09T11:46:57.908Z,25.70
2019-01-09T11:49:28.381Z,27.37
2019-01-09T11:51:58.884Z,24.00
2019-01-09T11:54:29.346Z,22.50
2019-01-09T11:56:59.743Z,32.83
2019-01-09T11:59:30.468Z,64.40
2019-01-09T12:02:01.014Z,30.57
2019-01-09T12:04:31.599Z,35.13
2019-01-09T12:07:02.040Z,23.53
2019-01-09T12:09:32.339Z,36.17
2019-01-09T12:12:07.407Z,44.90
2019-01-09T12:14:37.656Z,27.53
2019-01-09T12:17:08.044Z,42.60
2019-01-09T12:19:38.521Z,24.20
2019-01-09T12:22:09.011Z,33.23
2019-01-09T12:24:39.451Z,24.67
2019-01-09T12:27:09.914Z,22.87
2019-01-09T12:29:40.555Z,25.47
2019-01-09T12:32:10.917Z,23.53
2019-01-09T12:34:41.075Z,23.17
2019-01-09T12:37:11.155Z,20.97
2019-01-09T12:39:41.754Z,22.73
2019-01-09T12:42:12.263Z,29.03
2019-01-09T12:44:42.754Z,24.17
2019-01-09T12:47:13.274Z,22.17
2019-01-09T12:49:43.835Z,23.33
2019-01-09T12:52:14.824Z,23.10
2019-01-09T12:54:45.319Z,20.27
2019-01-09T12:57:15.755Z,21.10
2019-01-09T12:59:46.315Z,22.30
2019-01-09T13:02:16.596Z,22.83
2019-01-09T13:04:47.394Z,28.23
2019-01-09T13:07:18.035Z,20.83
2019-01-09T13:09:48.794Z,24.17
2019-01-09T13:12:19.154Z,19.90
2019-01-09T13:14:49.584Z,18.77
2019-01-09T13:17:20.477Z,18.10
2019-01-09T13:19:50.914Z,18.93
2019-01-09T13:22:21.451Z,20.10
2019-01-09T13:24:53.556Z,20.77
2019-01-09T13:27:24.034Z,19.07
2019-01-09T13:29:54.555Z,17.97
2019-01-09T13:32:25.114Z,18.70
2019-01-09T13:34:55.554Z,17.33
2019-01-09T13:37:26.957Z,17.07
2019-01-09T13:39:57.754Z,32.10
2019-01-09T13:42:28.675Z,23.60
2019-01-09T13:44:59.660Z,51.80
2019-01-09T13:47:31.356Z,28.93
2019-01-09T13:50:03.154Z,27.17
2019-01-09T13:52:34.116Z,37.27
2019-01-09T13:55:05.364Z,27.03
2019-01-09T13:57:36.876Z,30.53
2019-01-09T14:00:10.604Z,39.17
2019-01-09T14:02:44.583Z,27.07
2019-01-09T14:05:17.039Z,30.37
2019-01-09T14:07:48.075Z,30.30
2019-01-09T14:10:23.116Z,32.57
2019-01-09T14:12:54.115Z,31.00
2019-01-09T14:15:25.794Z,32.40
2019-01-09T14:17:56.154Z,42.73
2019-01-09T14:20:27.114Z,41.50
2019-01-09T14:22:58.146Z,43.98
2019-01-09T14:25:29.035Z,32.60
2019-01-09T14:28:03.394Z,31.63
2019-01-09T14:30:36.514Z,30.77
2019-01-09T14:33:10.594Z,35.83
2019-01-09T14:35:42.477Z,43.03
2019-01-09T14:38:14.394Z,32.40
2019-01-09T14:40:45.075Z,32.60
2019-01-09T14:43:16.091Z,36.27
2019-01-09T14:45:47.637Z,35.90
2019-01-09T14:48:18.679Z,30.93
2019-01-09T14:50:50.227Z,36.07
2019-01-09T14:53:20.920Z,31.60
2019-01-09T14:55:51.399Z,31.30
2019-01-09T14:58:21.560Z,31.20
2019-01-09T15:00:52.178Z,33.60
2019-01-09T15:03:24.008Z,40.47
2019-01-09T15:05:56.090Z,32.67
2019-01-09T15:08:32.089Z,33.47
2019-01-09T15:11:02.462Z,33.73
2019-01-09T15:13:34.076Z,41.43
2019-01-09T15:16:13.465Z,39.40
2019-01-09T15:18:46.512Z,54.63
2019-01-09T15:21:16.593Z,38.70
2019-01-09T15:23:46.823Z,36.47
2019-01-09T15:26:17.599Z,43.57
2019-01-09T15:28:47.774Z,44.43
2019-01-09T15:31:18.548Z,39.17
2019-01-09T15:33:52.239Z,43.40
2019-01-09T15:36:23.000Z,45.37
2019-01-09T15:38:53.494Z,53.87
2019-01-09T15:41:23.911Z,43.23
2019-01-09T15:43:55.657Z,45.70
2019-01-09T15:46:26.748Z,41.10
2019-01-09T15:48:57.984Z,41.60
2019-01-09T15:51:30.322Z,45.63
2019-01-09T15:54:01.377Z,43.67
2019-01-09T15:56:32.299Z,45.97
2019-01-09T15:59:05.013Z,43.60
2019-01-09T16:01:35.851Z,43.17
2019-01-09T16:04:06.475Z,39.67
2019-01-09T16:06:37.235Z,42.23
2019-01-09T16:09:09.319Z,47.50
2019-01-09T16:11:39.937Z,66.77
2019-01-09T16:14:14.173Z,58.70
2019-01-09T16:16:47.690Z,49.70
2019-01-09T16:19:18.064Z,46.47
2019-01-09T16:21:48.939Z,47.07
2019-01-09T16:24:21.961Z,45.37
2019-01-09T16:26:54.073Z,44.17
2019-01-09T16:29:24.643Z,48.53
2019-01-09T16:31:58.988Z,48.13
2019-01-09T16:34:32.831Z,57.33
2019-01-09T16:37:03.483Z,50.87
2019-01-09T16:39:41.859Z,53.43
2019-01-09T16:42:12.068Z,50.00
2019-01-09T16:44:43.499Z,51.50
2019-01-09T16:47:20.397Z,48.27
2019-01-09T16:49:53.036Z,50.80
2019-01-09T16:52:26.051Z,54.50
2019-01-09T16:54:57.036Z,51.40
2019-01-09T16:57:27.895Z,52.20
2019-01-09T17:00:02.816Z,49.97
2019-01-09T17:02:35.635Z,50.90
2019-01-09T17:05:08.959Z,47.87
2019-01-09T17:07:45.591Z,50.57
2019-01-09T17:10:32.354Z,51.67
2019-01-09T17:13:00.287Z,54.97
2019-01-09T17:15:30.841Z,54.53
2019-01-09T17:18:02.830Z,51.03
2019-01-09T17:20:33.734Z,51.63
2019-01-09T17:23:05.647Z,54.33
2019-01-09T17:25:36.690Z,52.63
2019-01-09T17:28:07.356Z,52.73
2019-01-09T17:30:37.881Z,54.70
2019-01-09T17:33:10.493Z,55.23
2019-01-09T17:35:40.871Z,56.00
2019-01-09T17:38:12.252Z,57.87
2019-01-09T17:40:43.317Z,58.07
2019-01-09T17:43:13.849Z,56.23
2019-01-09T17:45:44.289Z,61.63
2019-01-09T17:48:16.084Z,64.50
2019-01-09T17:50:46.868Z,64.50
2019-01-09T17:53:18.997Z,61.27
2019-01-09T17:55:49.943Z,66.13
2019-01-09T17:58:20.497Z,69.77
2019-01-09T18:00:51.168Z,73.53
2019-01-09T18:03:21.761Z,74.17
2019-01-09T18:05:52.139Z,84.97
2019-01-09T18:08:23.023Z,79.07
2019-01-09T18:10:54.479Z,80.90
2019-01-09T18:13:25.146Z,78.33
2019-01-09T18:15:55.913Z,82.13
2019-01-09T18:18:26.981Z,84.87
2019-01-09T18:20:58.133Z,85.37
2019-01-09T18:23:28.586Z,82.87
2019-01-09T18:25:58.919Z,83.67
2019-01-09T18:28:29.302Z,85.67
2019-01-09T18:31:08.377Z,85.40
2019-01-09T18:33:41.721Z,85.70
2019-01-09T18:36:28.563Z,90.90
2019-01-09T18:39:12.405Z,86.23
2019-01-09T18:41:45.387Z,90.77
2019-01-09T18:44:27.573Z,86.93
2019-01-09T18:47:03.648Z,86.77
2019-01-09T18:49:52.246Z,86.00
2019-01-09T18:52:37.726Z,84.40
2019-01-09T18:55:09.603Z,90.23
2019-01-09T18:57:42.322Z,85.43
2019-01-09T19:00:18.520Z,88.57
2019-01-09T19:02:49.305Z,86.03
2019-01-09T19:05:19.799Z,84.30
2019-01-09T19:07:50.725Z,87.30
2019-01-09T19:10:23.271Z,84.23
2019-01-09T19:12:58.023Z,86.60
2019-01-09T19:15:29.849Z,82.57
2019-01-09T19:18:00.609Z,85.57
2019-01-09T19:20:31.187Z,84.50
2019-01-09T19:23:03.645Z,86.93
2019-01-09T19:25:35.765Z,86.97
2019-01-09T19:28:06.427Z,85.53
2019-01-09T19:30:36.849Z,81.77
2019-01-09T19:33:07.304Z,84.03
2019-01-09T19:35:41.007Z,85.53
2019-01-09T19:38:12.785Z,84.23
2019-01-09T19:40:43.370Z,84.80
2019-01-09T19:43:14.078Z,89.47
2019-01-09T19:45:44.536Z,91.10
2019-01-09T19:48:15.295Z,92.13
2019-01-09T19:50:46.245Z,86.53
2019-01-09T19:53:18.489Z,97.10
2019-01-09T19:55:48.849Z,91.70
2019-01-09T19:58:19.392Z,92.37
2019-01-09T20:00:51.154Z,94.40
2019-01-09T20:03:23.144Z,95.10
2019-01-09T20:05:55.498Z,90.87
2019-01-09T20:08:26.457Z,94.13
2019-01-09T20:10:57.853Z,98.67
2019-01-09T20:13:31.118Z,98.37
2019-01-09T20:16:04.804Z,98.57
2019-01-09T20:18:38.789Z,98.47
2019-01-09T20:21:09.713Z,94.93
2019-01-09T20:23:40.971Z,98.30
2019-01-09T20:26:11.855Z,97.83
2019-01-09T20:28:43.314Z,95.10
2019-01-09T20:31:13.973Z,97.03
2019-01-09T20:33:46.086Z,96.30
2019-01-09T20:36:17.089Z,96.23
2019-01-09T20:38:47.372Z,97.53
2019-01-09T20:41:17.879Z,99.90
2019-01-09T20:43:48.727Z,98.27
2019-01-09T20:46:20.248Z,95.87
2019-01-09T20:48:50.665Z,95.23
2019-01-09T20:51:23.029Z,97.93
2019-01-09T20:53:53.490Z,95.03
2019-01-09T20:56:24.004Z,93.53
2019-01-09T20:58:54.854Z,94.50
2019-01-09T21:01:25.362Z,91.60
2019-01-09T21:03:56.044Z,92.20
2019-01-09T21:06:26.745Z,90.93
2019-01-09T21:08:59.741Z,91.10
2019-01-09T21:11:30.393Z,90.13
2019-01-09T21:14:01.046Z,91.30
2019-01-09T21:16:33.231Z,88.77
2019-01-09T21:19:03.710Z,87.10
2019-01-09T21:21:34.546Z,91.27
2019-01-09T21:24:05.459Z,91.83
2019-01-09T21:26:36.342Z,92.83
2019-01-09T21:29:06.761Z,92.40
2019-01-09T21:31:37.318Z,92.77
2019-01-09T21:34:08.498Z,90.37
2019-01-09T21:36:40.612Z,92.10
2019-01-09T21:39:11.575Z,89.87
2019-01-09T21:41:42.507Z,92.00
2019-01-09T21:44:15.999Z,96.13
2019-01-09T21:46:46.631Z,95.23
2019-01-09T21:49:17.185Z,93.87
2019-01-09T21:51:47.942Z,96.60
2019-01-09T21:54:18.175Z,101.23
2019-01-09T21:56:48.708Z,96.03
2019-01-09T21:59:19.273Z,98.50
2019-01-09T22:01:49.684Z,98.70
2019-01-09T22:04:20.304Z,103.63
2019-01-09T22:06:52.465Z,107.27
2019-01-09T22:09:23.782Z,111.30
2019-01-09T22:12:02.367Z,111.27
2019-01-09T22:14:27.665Z,112.17
2019-01-09T22:16:58.508Z,108.77
2019-01-09T22:19:30.203Z,111.07
2019-01-09T22:22:00.374Z,111.30
2019-01-09T22:24:31.306Z,104.93
2019-01-09T22:27:01.866Z,109.53
2019-01-09T22:29:32.658Z,109.67
2019-01-09T22:32:03.742Z,107.83
2019-01-09T22:34:34.935Z,108.90
2019-01-09T22:37:05.807Z,109.27
2019-01-09T22:39:37.291Z,109.93
2019-01-09T22:42:28.615Z,108.97
2019-01-09T22:45:04.799Z,106.83
2019-01-09T22:47:35.941Z,106.63
2019-01-09T22:50:17.182Z,108.60
2019-01-09T22:52:47.499Z,101.63
2019-01-09T22:55:18.286Z,104.97
2019-01-09T22:57:49.025Z,106.07
2019-01-09T23:00:35.255Z,100.30
2019-01-09T23:03:12.176Z,95.43
2019-01-09T23:05:42.789Z,99.23
2019-01-09T23:08:17.408Z,99.77
2019-01-09T23:10:55.000Z,98.13
2019-01-09T23:13:22.600Z,102.97
2019-01-09T23:15:53.247Z,101.47
2019-01-09T23:18:23.488Z,103.47
2019-01-09T23:20:54.765Z,96.43
2019-01-09T23:23:26.980Z,102.53
2019-01-09T23:25:59.454Z,103.57
2019-01-09T23:28:30.385Z,94.40
2019-01-09T23:31:01.426Z,97.13
2019-01-09T23:33:33.069Z,101.43
2019-01-09T23:36:05.142Z,110.33
2019-01-09T23:38:39.816Z,110.77
2019-01-09T23:41:11.132Z,118.00
2019-01-09T23:43:42.526Z,114.73
2019-01-09T23:46:13.129Z,106.70
2019-01-09T23:48:45.086Z,112.70
2019-01-09T23:51:15.565Z,117.07
2019-01-09T23:53:46.395Z,116.87
2019-01-09T23:56:16.666Z,118.63
2019-01-09T23:58:46.873Z,120.80
